Michigan Logo

Owosso, MI Single Family Real Estate Listings

66 Total Real Estate Listings * Click on table heading to sort
Date Posted Property Type Style Address Price Living Area Lot Size Price/Sq Ft.
2018-07-20 Single Family Colonial 1441 Jackson Owosso, MI 48867 $207,100 1,750 sq. ft. 23,087 sq. ft. $118
2018-07-20 Single Family Raised Ranch 1081 Jackson Owosso, MI 48867 $184,100 1,250 sq. ft. 10,019 sq. ft. $147
2018-07-19 Single Family Bungalow 515 Ament Owosso, MI 48867 $88,500 1,104 sq. ft. 5,227 sq. ft. $80
2018-07-19 Single Family Colonial 1101 Jackson Owosso, MI 48867 $184,100 1,594 sq. ft. 10,019 sq. ft. $116
2018-07-18 Single Family Free Standing/Detached 1121 Hanover Owosso, MI 48867 $145,000 1,600 sq. ft. 8,712 sq. ft. $91
2018-07-18 Single Family Ranch 1601 Cook Owosso, MI 48867 $155,000 2,700 sq. ft. 66,647 sq. ft. $57
2018-07-18 Single Family Ranch 636 Park Street Owosso, MI 48867 $62,900 800 sq. ft. 3,485 sq. ft. $79
2018-07-18 Single Family Ranch 118 Cloverbrook Dr Owosso, MI 48867 $349,900 2,100 sq. ft. 27,007 sq. ft. $167
2018-07-17 Single Family Ranch 130 Babcock Owosso, MI 48867 $86,777 720 sq. ft. 26,136 sq. ft. $121
2018-07-17 Single Family Bungalow 1207 Broadway Avenue Owosso, MI 48867 $59,000 844 sq. ft. 6,098 sq. ft. $70
2018-07-16 Single Family Colonial 802 Oliver Owosso, MI 48867 $212,800 2,420 sq. ft. 8,712 sq. ft. $88
2018-07-16 Single Family Ranch 1200 Huntington Drive Owosso, MI 48867 $125,000 1,456 sq. ft. 8,712 sq. ft. $86
2018-07-16 Single Family Bungalow 604 Grand Owosso, MI 48867 $85,000 1,116 sq. ft. 6,970 sq. ft. $76
2018-07-16 Single Family 310 Michigan Avenue Owosso, MI 48867 $51,000 1,720 sq. ft. 5,227 sq. ft. $30
2018-07-16 Single Family 310 Michigan Ave Owosso, MI 48867 $51,000 1,720 sq. ft. 5,227 sq. ft. $30
2018-07-13 Single Family Raised Ranch 703 Huntington Owosso, MI 48867 $139,900 1,012 sq. ft. 8,712 sq. ft. $138
2018-07-12 Single Family Victorian 820 Bradley Owosso, MI 48867 $58,000 1,230 sq. ft. 4,356 sq. ft. $47
2018-07-10 Single Family Free Standing/Detached 1421 Lynn St Owosso, MI 48867 $125,000 1,046 sq. ft. 18,295 sq. ft. $120
2018-07-05 Single Family Ranch 524 Ament Street Owosso, MI 48867 $89,900 963 sq. ft. 8,712 sq. ft. $93
2018-06-30 Single Family Raised Ranch 1275 Allendale Owosso, MI 48867 $90,000 960 sq. ft. 8,712 sq. ft. $94
2018-06-29 Single Family 803 Stewart Owosso, MI 48867 $99,900 1,522 sq. ft. 8,712 sq. ft. $66
2018-06-29 Single Family Victorian 520 Dewey Owosso, MI 48867 $119,000 1,348 sq. ft. 8,712 sq. ft. $88
2018-06-28 Single Family Raised Ranch 1033 Pearce Owosso, MI 48867 $69,900 936 sq. ft. 10,454 sq. ft. $75
2018-06-27 Single Family Colonial 713 Oliver Street Owosso, MI 48867 $369,900 5,980 sq. ft. 72,310 sq. ft. $62
2018-06-26 Single Family Colonial 509 Williams Owosso, MI 48867 $94,900 2,068 sq. ft. 10,890 sq. ft. $46
2018-06-25 Single Family Colonial 311 Saginaw Owosso, MI 48867 $89,900 1,704 sq. ft. 5,663 sq. ft. $53
2018-06-25 Single Family Farmhouse 422 Williams Owosso, MI 48867 $45,000 1,900 sq. ft. 10,019 sq. ft. $24
2018-06-21 Single Family Cape Cod 824 Saginaw St Owosso, MI 48867 $35,000 1,257 sq. ft. 16,553 sq. ft. $28
2018-06-19 Single Family Ranch 6070 M21 Owosso, MI 48867 $35,200 1,244 sq. ft. 23,087 sq. ft. $28
2018-06-19 Single Family 1131 Shiawassee Street Owosso, MI 48867 $79,900 612 sq. ft. 8,712 sq. ft. $131
2018-06-18 Single Family Ranch 812 Wilkinson Road Owosso, MI 48867 $149,900 1,350 sq. ft. 39,640 sq. ft. $111
2018-06-18 Single Family Colonial 515 Pine Street Owosso, MI 48867 $126,900 1,978 sq. ft. 6,534 sq. ft. $64
2018-06-15 Single Family Farmhouse 623 Frazer Ave Owosso, MI 48867 $49,900 1,598 sq. ft. 8,712 sq. ft. $31
2018-06-14 Single Family Colonial 820 Adams Owosso, MI 48867 $134,928 1,974 sq. ft. 13,068 sq. ft. $68
2018-06-13 Single Family Bungalow 1107 Hiram Owosso, MI 48867 $64,000 1,160 sq. ft. 8,712 sq. ft. $55
2018-06-10 Single Family Bungalow 415 Corunna Owosso, MI 48867 $74,900 1,020 sq. ft. 4,356 sq. ft. $73
2018-06-08 Single Family Cape Cod 303 Ridge St Owosso, MI 48867 $50,750 1,512 sq. ft. 4,792 sq. ft. $34
2018-06-07 Single Family Contemporary 1401 Shady Lane Owosso, MI 48867 $147,500 1,750 sq. ft. 13,939 sq. ft. $84
2018-06-02 Single Family Colonial 1130 Jackson Owosso, MI 48867 $171,900 1,364 sq. ft. 6,970 sq. ft. $126
2018-06-02 Single Family Manufactured With Land; Ranch 2631 Krouse Rd Owosso, MI 48867 $140,000 2,250 sq. ft. 87,120 sq. ft. $62
2018-05-30 Single Family Manufactured With Land; Ranch 2631 Krouse Road Owosso, MI 48867 $140,000 2,250 sq. ft. 80,586 sq. ft. $62
2018-05-30 Single Family Ranch 1103 Corlett Dr Owosso, MI 48867 $164,900 1,538 sq. ft. 11,761 sq. ft. $107
2018-05-29 Single Family Contemporary 701 King Owosso, MI 48867 $119,900 1,232 sq. ft. 6,098 sq. ft. $97
2018-05-24 Single Family Bungalow 626 Hickory Owosso, MI 48867 $89,900 1,365 sq. ft. 12,197 sq. ft. $66
2018-05-22 Single Family 3 Bennington Greens Owosso, MI 48867 $239,500 1,750 sq. ft. 22,216 sq. ft. $137
2018-05-21 Single Family Bungalow 1333 Adams Owosso, MI 48867 $78,500 1,078 sq. ft. 7,841 sq. ft. $73
2018-05-14 Single Family 654 First St Owosso, MI 48867 $279,900 2,792 sq. ft. 21,780 sq. ft. $100
2018-05-10 Single Family 623 Grover Owosso, MI 48867 $69,900 912 sq. ft. 11,326 sq. ft. $77
2018-05-09 Single Family Ranch 1400 Olmstead Owosso, MI 48867 $110,000 1,224 sq. ft. 8,712 sq. ft. $90
2018-05-09 Single Family Farmhouse 1026 Chipman Owosso, MI 48667 $75,000 942 sq. ft. 10,019 sq. ft. $80
2018-05-07 Single Family Ranch 246 Gute St Owosso, MI 48867 $65,000 912 sq. ft. 12,632 sq. ft. $71
2018-05-06 Single Family Raised Ranch 980 Delaney Owosso, MI 48867 $159,900 1,680 sq. ft. 26,136 sq. ft. $95
2018-05-06 Single Family Historic 318 Oliver Street Owosso, MI 48867 $163,000 4,560 sq. ft. 8,276 sq. ft. $36
2018-04-25 Single Family Ranch 1701 Dewey Owosso, MI 48867 $29,900 834 sq. ft. 16,553 sq. ft. $36
2018-04-23 Single Family 627 Pine Street Owosso, MI 48867 $107,900 1,888 sq. ft. 9,148 sq. ft. $57
2018-04-20 Single Family Colonial 717 King St Owosso, MI 48867 $139,900 1,895 sq. ft. 6,098 sq. ft. $74
2018-04-12 Single Family 1026 Chipman Street Owosso, MI 48867 $75,000 942 sq. ft. 10,019 sq. ft. $80
2018-04-11 Single Family Contemporary 1001 Oliver Owosso, MI 48867 $245,000 2,725 sq. ft. 29,185 sq. ft. $90
2018-04-03 Single Family Victorian 118 Oliver Owosso, MI 48867 $225,000 3,286 sq. ft. 13,504 sq. ft. $68
2018-03-23 Single Family Free Standing/Detached 415 Curwood Dr Owosso, MI 48867 $499,000 2,959 sq. ft. 20,909 sq. ft. $169
2018-03-07 Single Family Farmhouse 436 Genesee Owosso, MI 48867 $85,000 1,504 sq. ft. 4,356 sq. ft. $57
2018-02-16 Single Family 819 Ball Owosso, MI 48867 $84,900 1,386 sq. ft. 5,663 sq. ft. $61
2018-02-13 Single Family Ranch 420 Cedar Street Owosso, MI 48867 $50,000 1,920 sq. ft. 42,253 sq. ft. $26
2017-11-24 Single Family Bungalow 1412 Lynn Owosso, MI 48867 $63,000 625 sq. ft. 8,712 sq. ft. $101
2017-08-07 Single Family Hickory St Owosso, MI 48867 $49,999 2,000 sq. ft. 13,068 sq. ft. $25
2016-04-19 Single Family Free Standing/Detached 635 Third St Owosso, MI 48867 $195,500 2,272 sq. ft. 16,553 sq. ft. $86